Time;durP1;ratioP1;P1;durP2;ratioP2;P2;SDS_P1;SDS_P2;PMS_P1;PMS_P2;Temp;Humidity;BMP_temperature;BMP_pressure;BME280_temperature;BME280_humidity;BME280_pressure;Samples;Min_cycle;Max_cycle;Signal;HPM_P1;HPM_P2
2021/12/27 00:02:25;;;;;;;22.93;13.47;;;0.70;68.80;;;;;;4811770;29;20058;-76
2021/12/27 00:04:51;;;;;;;18.00;12.67;;;0.70;68.90;;;;;;4797382;29;20090;-76
2021/12/27 00:07:17;;;;;;;20.47;12.93;;;0.70;68.90;;;;;;4794975;29;20145;-76
2021/12/27 00:09:44;;;;;;;22.20;13.83;;;0.70;68.90;;;;;;4796014;29;20514;-76
2021/12/27 00:12:10;;;;;;;21.50;13.67;;;0.70;69.00;;;;;;4795911;29;20058;-76
2021/12/27 00:14:35;;;;;;;23.27;13.57;;;0.70;69.10;;;;;;4816126;29;20049;-77
2021/12/27 00:17:01;;;;;;;22.00;12.97;;;0.70;69.10;;;;;;4795392;29;20093;-80
2021/12/27 00:19:27;;;;;;;20.33;12.60;;;0.70;69.10;;;;;;4823620;29;20050;-81
2021/12/27 00:21:52;;;;;;;22.80;13.30;;;0.70;69.10;;;;;;4806607;29;20380;-80
2021/12/27 00:24:18;;;;;;;21.77;13.33;;;0.70;69.10;;;;;;4823074;29;20090;-80
2021/12/27 00:26:44;;;;;;;22.67;13.00;;;0.70;69.20;;;;;;4820818;29;20057;-81
2021/12/27 00:29:11;;;;;;;26.80;14.67;;;0.70;69.20;;;;;;4824263;29;20050;-80
2021/12/27 00:31:37;;;;;;;23.40;14.43;;;0.70;69.30;;;;;;4822403;29;20126;-80
2021/12/27 00:34:03;;;;;;;22.00;12.87;;;0.70;69.40;;;;;;4806125;29;20066;-80
2021/12/27 00:36:28;;;;;;;22.13;14.53;;;0.70;69.40;;;;;;4783228;29;20402;-80
2021/12/27 00:38:54;;;;;;;23.30;13.70;;;0.70;69.30;;;;;;4823694;29;20051;-81
2021/12/27 00:41:20;;;;;;;23.10;14.33;;;0.70;69.30;;;;;;4790875;29;20107;-80
2021/12/27 00:43:45;;;;;;;21.57;14.10;;;0.80;69.40;;;;;;4818504;29;20057;-81
2021/12/27 00:46:11;;;;;;;21.53;13.80;;;0.80;69.40;;;;;;4822902;29;20392;-81
2021/12/27 00:48:37;;;;;;;20.23;12.80;;;0.80;69.50;;;;;;4806769;29;20051;-82
2021/12/27 00:51:03;;;;;;;20.97;12.87;;;0.80;70.00;;;;;;4823628;29;20047;-82
2021/12/27 00:53:29;;;;;;;23.30;13.80;;;0.80;69.50;;;;;;4805868;29;20069;-82
2021/12/27 00:55:55;;;;;;;23.30;14.60;;;0.80;69.60;;;;;;4820874;29;20099;-82
2021/12/27 00:58:21;;;;;;;21.67;13.77;;;0.80;69.60;;;;;;4823752;29;20050;-82
2021/12/27 01:00:47;;;;;;;22.50;13.13;;;0.80;69.50;;;;;;4807480;29;20054;-82
2021/12/27 01:03:12;;;;;;;21.03;13.37;;;0.80;70.00;;;;;;4805804;29;20083;-82
2021/12/27 01:05:38;;;;;;;23.40;14.70;;;0.80;69.60;;;;;;4806157;29;20043;-82
2021/12/27 01:08:05;;;;;;;26.10;14.90;;;0.80;69.60;;;;;;4823798;29;20078;-82
2021/12/27 01:15:50;;;;;;;22.50;13.63;;;0.90;69.70;;;;;;4825449;29;20058;-82
2021/12/27 01:18:18;;;;;;;20.73;13.40;;;0.90;69.80;;;;;;4806689;29;20403;-82
2021/12/27 01:20:44;;;;;;;22.43;14.17;;;0.90;69.80;;;;;;4810536;29;20066;-82
2021/12/27 01:23:11;;;;;;;22.60;14.40;;;0.90;69.80;;;;;;4824562;29;20090;-82
2021/12/27 01:25:37;;;;;;;20.70;12.73;;;0.90;69.80;;;;;;4810599;29;20407;-82
2021/12/27 01:28:04;;;;;;;21.90;13.77;;;0.90;69.80;;;;;;4809550;29;20052;-82
2021/12/27 01:30:32;;;;;;;22.70;14.67;;;0.90;69.90;;;;;;4809727;29;20053;-82
2021/12/27 01:33:00;;;;;;;23.00;14.43;;;1.00;70.00;;;;;;4824435;29;20050;-82
2021/12/27 01:35:26;;;;;;;21.57;13.67;;;1.00;70.10;;;;;;4810467;29;20066;-81
2021/12/27 01:37:53;;;;;;;23.10;13.90;;;1.00;70.10;;;;;;4822444;29;20498;-82
2021/12/27 01:40:23;;;;;;;23.90;14.60;;;1.00;70.20;;;;;;4826269;29;20046;-82
2021/12/27 01:43:08;;;;;;;21.67;14.17;;;1.00;70.30;;;;;;4808694;29;20062;-83
2021/12/27 01:45:38;;;;;;;24.40;14.23;;;1.00;70.50;;;;;;4808259;29;20050;-82
2021/12/27 01:48:06;;;;;;;23.43;14.47;;;1.00;70.50;;;;;;4825963;29;20046;-82
2021/12/27 01:50:32;;;;;;;26.53;14.23;;;1.00;70.60;;;;;;4809765;29;20418;-81
2021/12/27 01:52:58;;;;;;;21.53;14.33;;;1.00;70.80;;;;;;4823412;29;20490;-81
2021/12/27 01:55:24;;;;;;;25.10;15.73;;;1.00;70.80;;;;;;4808771;29;20137;-82
2021/12/27 01:57:49;;;;;;;22.70;14.57;;;1.00;70.80;;;;;;4809444;29;20046;-82
2021/12/27 02:00:15;;;;;;;26.13;16.10;;;1.00;71.10;;;;;;4824448;29;20399;-82
2021/12/27 02:02:41;;;;;;;22.47;14.37;;;1.00;71.00;;;;;;4809527;29;20048;-82
2021/12/27 02:05:07;;;;;;;22.50;14.87;;;1.00;71.10;;;;;;4806572;29;20046;-82
2021/12/27 02:07:33;;;;;;;23.53;15.33;;;1.00;71.10;;;;;;4826204;29;20058;-82
2021/12/27 02:10:02;;;;;;;25.23;14.83;;;1.00;71.20;;;;;;4825735;29;20059;-82
2021/12/27 02:12:32;;;;;;;22.57;15.00;;;1.00;71.30;;;;;;4809223;29;20046;-83
2021/12/27 02:14:58;;;;;;;22.27;14.63;;;1.00;71.40;;;;;;4809682;29;20059;-82
2021/12/27 02:17:25;;;;;;;25.03;15.80;;;1.00;71.40;;;;;;4825319;29;20491;-82
2021/12/27 02:19:52;;;;;;;23.90;15.13;;;1.00;71.60;;;;;;4803257;29;20050;-82
2021/12/27 02:22:18;;;;;;;24.93;15.10;;;1.00;72.00;;;;;;4822458;29;20502;-83
2021/12/27 02:24:44;;;;;;;23.60;14.20;;;1.00;71.60;;;;;;4817679;29;20377;-82
2021/12/27 02:27:14;;;;;;;24.43;16.17;;;1.00;71.60;;;;;;4817994;29;20052;-83
2021/12/27 02:29:40;;;;;;;24.63;15.90;;;1.10;71.70;;;;;;4825439;29;20066;-82
2021/12/27 02:32:06;;;;;;;23.73;15.33;;;1.10;71.80;;;;;;4803738;29;20049;-82
2021/12/27 02:34:32;;;;;;;27.17;16.33;;;1.10;71.80;;;;;;4805202;29;20050;-81
2021/12/27 02:36:58;;;;;;;23.57;15.03;;;1.10;71.80;;;;;;4824391;29;20042;-82
2021/12/27 02:39:25;;;;;;;25.23;16.30;;;1.00;71.80;;;;;;4821876;29;20089;-82
2021/12/27 02:41:52;;;;;;;24.20;15.27;;;1.00;71.80;;;;;;4806458;29;20050;-81
2021/12/27 02:44:18;;;;;;;24.17;16.47;;;1.10;72.00;;;;;;4807991;29;20506;-82
2021/12/27 02:46:43;;;;;;;24.77;15.57;;;1.10;71.90;;;;;;4824105;29;20046;-81
2021/12/27 02:49:09;;;;;;;26.03;16.57;;;1.10;72.00;;;;;;4805348;29;20096;-82
2021/12/27 02:51:35;;;;;;;25.97;17.50;;;1.10;72.10;;;;;;4825889;29;20038;-82
2021/12/27 02:54:01;;;;;;;27.63;17.20;;;1.10;72.10;;;;;;4823633;29;20128;-82
2021/12/27 02:56:29;;;;;;;26.80;17.33;;;1.10;72.30;;;;;;4808250;29;20133;-82
2021/12/27 02:58:55;;;;;;;29.93;16.40;;;1.10;72.50;;;;;;4806903;29;20403;-81
2021/12/27 03:01:24;;;;;;;26.27;17.10;;;1.10;72.50;;;;;;4808635;29;20537;-82
2021/12/27 03:03:51;;;;;;;29.10;18.47;;;1.10;72.80;;;;;;4811616;29;20050;-81
2021/12/27 03:06:18;;;;;;;28.00;17.57;;;1.10;73.20;;;;;;4807962;29;20077;-80
2021/12/27 03:08:45;;;;;;;30.47;17.20;;;1.10;73.00;;;;;;4822798;29;20042;-80
2021/12/27 03:11:12;;;;;;;30.10;16.97;;;1.00;73.30;;;;;;4800571;29;20046;-80
2021/12/27 03:13:45;;;;;;;34.07;19.93;;;1.00;73.40;;;;;;4809990;29;20398;-80
2021/12/27 03:16:15;;;;;;;29.75;17.52;;;1.00;73.60;;;;;;4811739;29;20085;-80
2021/12/27 03:18:48;;;;;;;30.60;18.30;;;1.00;73.70;;;;;;4846316;29;20057;-81
2021/12/27 03:21:14;;;;;;;32.53;19.40;;;1.10;73.90;;;;;;4830557;29;20058;-81
2021/12/27 03:23:41;;;;;;;33.47;19.90;;;1.00;74.00;;;;;;4809114;29;20085;-81
2021/12/27 03:26:08;;;;;;;29.43;19.10;;;1.00;74.20;;;;;;4806939;29;20069;-80
2021/12/27 03:28:34;;;;;;;32.07;18.70;;;1.00;74.30;;;;;;4800717;29;20058;-81
2021/12/27 03:31:00;;;;;;;33.40;20.40;;;1.00;74.30;;;;;;4817509;29;20372;-81
2021/12/27 03:33:27;;;;;;;34.77;20.73;;;1.00;74.70;;;;;;4804013;29;20399;-81
2021/12/27 03:36:04;;;;;;;33.70;19.70;;;1.00;74.80;;;;;;4823565;29;20054;-81
2021/12/27 03:38:40;;;;;;;29.70;18.80;;;1.00;75.00;;;;;;4823147;29;20091;-81
2021/12/27 03:41:10;;;;;;;30.23;19.70;;;0.90;74.90;;;;;;4818499;29;20488;-81
2021/12/27 03:43:35;;;;;;;33.27;19.23;;;1.00;75.00;;;;;;4808179;29;20125;-82
2021/12/27 03:46:01;;;;;;;32.97;18.57;;;0.90;75.00;;;;;;4823932;29;20134;-81
2021/12/27 03:48:28;;;;;;;33.17;19.67;;;1.00;75.10;;;;;;4820330;29;20054;-81
2021/12/27 03:50:54;;;;;;;31.13;20.23;;;1.00;75.30;;;;;;4823401;29;20543;-81
2021/12/27 03:53:19;;;;;;;33.03;19.73;;;0.90;75.30;;;;;;4824275;29;20055;-82
2021/12/27 03:55:45;;;;;;;35.33;20.33;;;1.00;75.50;;;;;;4805645;29;20046;-81
2021/12/27 03:58:23;;;;;;;32.83;19.80;;;1.00;75.50;;;;;;4820983;29;20509;-81
2021/12/27 04:01:01;;;;;;;32.60;19.47;;;1.00;75.60;;;;;;4817082;29;20038;-81
2021/12/27 04:03:29;;;;;;;32.37;20.67;;;1.00;75.60;;;;;;4806761;29;20053;-82
2021/12/27 04:05:55;;;;;;;33.07;19.40;;;1.00;75.60;;;;;;4806971;29;20050;-81
2021/12/27 04:08:22;;;;;;;32.87;19.87;;;1.00;75.70;;;;;;4806616;29;20050;-81
2021/12/27 04:10:49;;;;;;;31.97;19.73;;;1.00;75.80;;;;;;4823991;29;20042;-81
2021/12/27 04:13:18;;;;;;;32.00;19.97;;;1.00;75.80;;;;;;4821372;29;20046;-81
2021/12/27 04:15:45;;;;;;;34.67;20.07;;;1.00;75.90;;;;;;4817885;29;20043;-81
2021/12/27 04:18:11;;;;;;;33.27;19.67;;;1.00;76.00;;;;;;4824064;29;20046;-81
2021/12/27 04:20:37;;;;;;;34.20;19.53;;;1.00;76.00;;;;;;4822576;29;20115;-81
2021/12/27 04:23:04;;;;;;;34.30;20.37;;;1.00;76.10;;;;;;4807353;29;20050;-81
2021/12/27 04:25:29;;;;;;;31.90;18.90;;;1.00;76.10;;;;;;4822723;29;20050;-81
2021/12/27 04:27:55;;;;;;;34.50;19.63;;;1.00;76.00;;;;;;4807564;29;20433;-81
2021/12/27 04:30:21;;;;;;;34.10;20.87;;;1.00;76.10;;;;;;4823495;29;20054;-80
2021/12/27 04:32:47;;;;;;;31.93;19.13;;;1.00;76.20;;;;;;4821353;29;20077;-81
2021/12/27 04:35:14;;;;;;;31.27;19.20;;;1.00;76.20;;;;;;4807538;29;20067;-81
2021/12/27 04:37:40;;;;;;;33.80;20.27;;;1.00;76.30;;;;;;4822435;29;20046;-80
2021/12/27 04:40:08;;;;;;;30.30;19.47;;;1.00;76.20;;;;;;4824136;29;20399;-81
2021/12/27 04:42:34;;;;;;;35.27;20.77;;;1.00;76.20;;;;;;4807245;29;20054;-81
2021/12/27 04:45:02;;;;;;;32.93;19.73;;;1.00;76.20;;;;;;4809950;29;20066;-81
2021/12/27 04:47:28;;;;;;;35.67;20.03;;;1.00;76.20;;;;;;4805243;29;20680;-81
2021/12/27 04:49:54;;;;;;;34.23;22.03;;;1.00;76.20;;;;;;4826114;29;20057;-81
2021/12/27 04:52:20;;;;;;;31.77;19.53;;;1.00;76.20;;;;;;4826006;29;20511;-81
2021/12/27 04:54:46;;;;;;;32.33;19.83;;;1.00;76.20;;;;;;4825850;29;20055;-81
2021/12/27 04:57:12;;;;;;;31.57;20.13;;;1.10;76.30;;;;;;4825731;29;20053;-81
2021/12/27 04:59:37;;;;;;;34.17;20.23;;;1.10;76.40;;;;;;4810909;29;20057;-81
2021/12/27 05:02:04;;;;;;;35.90;20.77;;;1.10;76.40;;;;;;4826905;29;20042;-81
2021/12/27 05:04:30;;;;;;;35.43;19.90;;;1.10;76.50;;;;;;4825222;29;20054;-81
2021/12/27 05:06:56;;;;;;;32.70;20.23;;;1.10;76.50;;;;;;4820900;29;20038;-81
2021/12/27 05:09:21;;;;;;;30.93;19.30;;;1.10;76.50;;;;;;4826349;29;20050;-81
2021/12/27 05:11:47;;;;;;;34.43;20.63;;;1.10;76.40;;;;;;4810515;29;20093;-81
2021/12/27 05:14:13;;;;;;;35.40;20.63;;;1.10;76.50;;;;;;4810610;29;20549;-81
2021/12/27 05:16:39;;;;;;;34.80;21.00;;;1.10;76.40;;;;;;4808218;29;20547;-81
2021/12/27 05:19:05;;;;;;;33.43;18.80;;;1.10;76.50;;;;;;4824670;29;20066;-81
2021/12/27 05:21:30;;;;;;;36.00;20.40;;;1.10;76.50;;;;;;4823683;29;20061;-81
2021/12/27 05:23:56;;;;;;;32.80;20.00;;;1.10;76.50;;;;;;4809369;29;20446;-80
2021/12/27 05:26:23;;;;;;;32.33;19.90;;;1.10;76.50;;;;;;4809017;29;20498;-81
2021/12/27 05:28:48;;;;;;;34.77;20.37;;;1.20;76.70;;;;;;4824975;29;20502;-81
2021/12/27 05:31:14;;;;;;;33.43;20.23;;;1.20;76.70;;;;;;4822893;29;20083;-81
2021/12/27 05:33:40;;;;;;;34.37;20.70;;;1.20;76.70;;;;;;4806489;29;20094;-81
2021/12/27 05:36:05;;;;;;;33.13;20.17;;;1.10;76.70;;;;;;4809827;29;20038;-81
2021/12/27 05:38:31;;;;;;;32.90;20.40;;;1.20;76.70;;;;;;4808916;29;20167;-81
2021/12/27 05:40:57;;;;;;;36.13;20.97;;;1.20;76.80;;;;;;4825961;29;20062;-80
2021/12/27 05:43:24;;;;;;;36.50;20.37;;;1.20;76.80;;;;;;4809177;29;20475;-81
2021/12/27 05:45:51;;;;;;;35.87;20.53;;;1.20;76.80;;;;;;4808966;29;20491;-82
2021/12/27 05:48:16;;;;;;;34.63;20.07;;;1.20;76.80;;;;;;4824713;29;20114;-82
2021/12/27 05:50:43;;;;;;;37.63;21.70;;;1.20;76.90;;;;;;4809769;29;20486;-80
2021/12/27 05:53:09;;;;;;;33.37;20.83;;;1.20;76.90;;;;;;4823618;29;20066;-81
2021/12/27 05:55:35;;;;;;;37.00;21.87;;;1.20;76.90;;;;;;4809344;29;20051;-81
2021/12/27 05:58:03;;;;;;;38.10;21.37;;;1.20;77.00;;;;;;4808988;29;20046;-81
2021/12/27 06:00:29;;;;;;;44.53;23.80;;;1.20;77.00;;;;;;4825719;29;20118;-81
2021/12/27 06:02:55;;;;;;;40.57;22.63;;;1.20;77.10;;;;;;4823309;29;20191;-82
2021/12/27 06:05:22;;;;;;;42.33;23.27;;;1.30;77.30;;;;;;4824497;29;20039;-81
2021/12/27 06:07:49;;;;;;;38.07;21.47;;;1.30;77.30;;;;;;4807639;29;20046;-81
2021/12/27 06:10:14;;;;;;;42.20;22.77;;;1.30;77.40;;;;;;4809576;29;20051;-82
2021/12/27 06:12:40;;;;;;;41.10;22.70;;;1.30;77.40;;;;;;4825550;29;20748;-82
2021/12/27 06:15:07;;;;;;;36.13;22.33;;;1.30;77.50;;;;;;4825839;29;20133;-81
2021/12/27 06:17:33;;;;;;;38.00;21.40;;;1.30;77.70;;;;;;4807366;29;20050;-82
2021/12/27 06:20:05;;;;;;;39.73;22.03;;;1.30;77.70;;;;;;4826251;29;20034;-82
2021/12/27 06:22:32;;;;;;;40.43;21.90;;;1.30;77.80;;;;;;4807889;29;20450;-81
2021/12/27 06:25:03;;;;;;;42.77;23.03;;;1.30;77.90;;;;;;4825751;29;20103;-82
2021/12/27 06:27:32;;;;;;;48.63;24.47;;;1.30;77.80;;;;;;4823953;29;20399;-82
2021/12/27 06:29:59;;;;;;;41.30;22.43;;;1.30;77.90;;;;;;4808854;29;20557;-82
2021/12/27 06:32:26;;;;;;;42.00;23.23;;;1.30;77.90;;;;;;4823998;29;20054;-82
2021/12/27 06:34:52;;;;;;;44.03;23.07;;;1.30;78.00;;;;;;4809514;29;20099;-81
2021/12/27 06:37:18;;;;;;;42.90;24.33;;;1.30;77.90;;;;;;4802961;29;20050;-81
2021/12/27 06:39:44;;;;;;;48.07;25.60;;;1.40;78.10;;;;;;4825602;29;20129;-81
2021/12/27 06:42:09;;;;;;;41.60;22.77;;;1.40;78.10;;;;;;4804407;29;20125;-81
2021/12/27 06:44:35;;;;;;;45.10;24.03;;;1.40;78.20;;;;;;4809210;29;20046;-82
2021/12/27 06:47:01;;;;;;;49.03;25.67;;;1.40;78.10;;;;;;4802478;29;20039;-81
2021/12/27 06:49:28;;;;;;;50.73;24.53;;;1.40;78.20;;;;;;4792609;29;20077;-81
2021/12/27 06:51:54;;;;;;;51.63;24.73;;;1.40;78.30;;;;;;4803640;29;20130;-81
2021/12/27 06:54:20;;;;;;;51.07;26.37;;;1.40;78.30;;;;;;4824619;29;20157;-82
2021/12/27 06:56:46;;;;;;;46.93;24.90;;;1.40;78.70;;;;;;4809081;29;20470;-82
2021/12/27 06:59:11;;;;;;;51.13;24.83;;;1.40;78.40;;;;;;4807237;29;20522;-81
2021/12/27 07:01:37;;;;;;;50.43;24.53;;;1.40;78.50;;;;;;4808582;29;20125;-82
2021/12/27 07:04:03;;;;;;;58.60;25.90;;;1.40;78.50;;;;;;4820350;29;20081;-82
2021/12/27 07:06:28;;;;;;;55.80;25.53;;;1.40;78.60;;;;;;4808382;29;20144;-82
2021/12/27 07:08:54;;;;;;;58.63;26.80;;;1.50;78.70;;;;;;4804830;29;20217;-82
2021/12/27 07:11:19;;;;;;;63.63;25.57;;;1.40;78.60;;;;;;4824888;29;20410;-81
2021/12/27 07:13:45;;;;;;;59.83;28.90;;;1.40;78.60;;;;;;4803211;29;20042;-82
2021/12/27 07:16:11;;;;;;;75.67;27.87;;;1.40;78.70;;;;;;4808675;29;20093;-82
2021/12/27 07:18:37;;;;;;;65.23;26.63;;;1.40;78.70;;;;;;4808704;29;20057;-82
2021/12/27 07:21:03;;;;;;;69.37;28.63;;;1.50;78.90;;;;;;4812016;29;20042;-81
2021/12/27 07:23:28;;;;;;;66.70;27.40;;;1.50;79.00;;;;;;4818194;29;20037;-81
2021/12/27 07:25:54;;;;;;;68.43;28.37;;;1.50;79.00;;;;;;4829450;29;20487;-81
2021/12/27 07:28:19;;;;;;;73.13;28.77;;;1.50;79.00;;;;;;4816734;29;20042;-81
2021/12/27 07:30:45;;;;;;;78.33;29.03;;;1.50;79.10;;;;;;4826410;29;20050;-81
2021/12/27 07:33:11;;;;;;;74.10;27.57;;;1.50;79.20;;;;;;4808757;29;20068;-81
2021/12/27 07:35:37;;;;;;;67.27;27.67;;;1.50;79.10;;;;;;4825680;29;20050;-82
2021/12/27 07:38:03;;;;;;;70.30;27.60;;;1.50;79.10;;;;;;4820361;29;20034;-82
2021/12/27 07:40:29;;;;;;;73.33;28.47;;;1.50;79.20;;;;;;4807856;29;20129;-82
2021/12/27 07:42:55;;;;;;;69.23;29.07;;;1.50;79.20;;;;;;4823405;29;20091;-82
2021/12/27 07:45:21;;;;;;;71.33;27.90;;;1.50;79.30;;;;;;4824966;29;20096;-82
2021/12/27 07:47:47;;;;;;;73.67;28.57;;;1.50;79.40;;;;;;4820362;29;20082;-83
2021/12/27 07:50:13;;;;;;;73.97;28.43;;;1.50;79.40;;;;;;4805579;29;20086;-82
2021/12/27 07:52:39;;;;;;;87.07;29.93;;;1.50;79.50;;;;;;4821567;29;20050;-83
2021/12/27 07:55:06;;;;;;;91.83;29.77;;;1.60;79.60;;;;;;4805735;29;20058;-82
2021/12/27 07:57:31;;;;;;;73.87;29.67;;;1.60;79.70;;;;;;4823164;29;20050;-83
2021/12/27 07:59:57;;;;;;;69.47;28.00;;;1.60;79.70;;;;;;4806296;29;20054;-83
2021/12/27 08:02:23;;;;;;;70.93;28.90;;;1.60;79.70;;;;;;4807137;29;20053;-84
2021/12/27 08:04:49;;;;;;;71.33;27.97;;;1.60;79.80;;;;;;4805150;29;20042;-83
2021/12/27 08:07:15;;;;;;;78.87;29.50;;;1.60;79.80;;;;;;4807324;29;20518;-84
2021/12/27 08:09:40;;;;;;;65.97;27.13;;;1.60;79.80;;;;;;4803694;29;20050;-84
2021/12/27 08:12:09;;;;;;;69.00;29.27;;;1.60;79.80;;;;;;4824362;29;20050;-84
2021/12/27 08:14:35;;;;;;;72.37;29.73;;;1.70;80.00;;;;;;4804201;29;20054;-83
2021/12/27 08:17:01;;;;;;;69.17;27.67;;;1.60;79.90;;;;;;4807674;29;20054;-83
2021/12/27 08:19:26;;;;;;;64.80;25.90;;;1.70;80.10;;;;;;4802233;29;20048;-84
2021/12/27 08:21:52;;;;;;;66.70;26.13;;;1.70;80.20;;;;;;4824214;29;20478;-83
2021/12/27 08:24:18;;;;;;;65.40;26.33;;;1.70;80.20;;;;;;4796776;29;20475;-83
2021/12/27 08:26:43;;;;;;;64.53;26.07;;;1.70;80.20;;;;;;4807084;29;20042;-83
2021/12/27 08:29:10;;;;;;;64.03;25.93;;;1.70;80.20;;;;;;4820892;29;20083;-83
2021/12/27 08:31:36;;;;;;;61.73;24.57;;;1.70;80.30;;;;;;4805517;29;20141;-80
2021/12/27 08:34:02;;;;;;;72.63;26.00;;;1.70;80.30;;;;;;4820946;29;20559;-83
2021/12/27 08:36:28;;;;;;;73.93;27.97;;;1.80;80.40;;;;;;4805842;29;20129;-83
2021/12/27 08:38:54;;;;;;;69.33;26.73;;;1.80;80.40;;;;;;4786672;29;20145;-82
2021/12/27 08:41:27;;;;;;;75.03;27.70;;;1.80;80.40;;;;;;4797167;29;20050;-85
2021/12/27 08:43:54;;;;;;;67.93;26.73;;;1.80;80.90;;;;;;4812171;29;20450;-83
2021/12/27 08:46:20;;;;;;;71.43;27.40;;;1.80;80.60;;;;;;4795913;29;20054;-82
2021/12/27 08:48:45;;;;;;;77.57;28.43;;;1.90;80.60;;;;;;4813848;29;20053;-83
2021/12/27 08:51:11;;;;;;;83.43;29.77;;;1.90;80.60;;;;;;4806984;29;20047;-83
2021/12/27 08:53:37;;;;;;;74.47;27.50;;;1.90;80.60;;;;;;4802576;29;20098;-81
2021/12/27 08:56:03;;;;;;;61.57;25.70;;;1.90;80.70;;;;;;4796245;29;20632;-82
2021/12/27 08:58:29;;;;;;;73.60;26.97;;;2.00;80.80;;;;;;4811521;29;20053;-81
2021/12/27 09:00:55;;;;;;;69.80;27.60;;;2.00;80.80;;;;;;4810652;29;20121;-82
2021/12/27 09:03:20;;;;;;;87.00;27.13;;;2.00;80.80;;;;;;4798764;29;20142;-82
2021/12/27 09:05:46;;;;;;;60.80;25.17;;;2.00;80.80;;;;;;4821115;29;20057;-83
2021/12/27 09:08:12;;;;;;;73.07;27.00;;;2.00;80.80;;;;;;4817408;29;20043;-83
2021/12/27 09:10:37;;;;;;;81.40;27.03;;;2.00;80.80;;;;;;4805085;29;20053;-83
2021/12/27 09:13:03;;;;;;;64.97;26.37;;;2.00;80.90;;;;;;4791860;29;20058;-82
2021/12/27 09:15:30;;;;;;;84.43;33.60;;;2.10;81.00;;;;;;4827907;29;20077;-82
2021/12/27 09:17:57;;;;;;;83.13;29.67;;;2.10;81.00;;;;;;4822423;29;20046;-82
2021/12/27 09:20:24;;;;;;;70.87;27.97;;;2.10;81.00;;;;;;4827033;29;21890;-79
2021/12/27 09:22:50;;;;;;;97.13;36.60;;;2.10;81.00;;;;;;4802703;29;20062;-83
2021/12/27 09:25:16;;;;;;;88.10;31.63;;;2.10;81.10;;;;;;4804224;29;20073;-82
2021/12/27 09:27:42;;;;;;;78.97;28.97;;;2.10;81.10;;;;;;4820606;29;20043;-83
2021/12/27 09:30:08;;;;;;;91.20;30.07;;;2.20;81.10;;;;;;4808923;29;20179;-83
2021/12/27 09:32:34;;;;;;;88.67;29.57;;;2.20;81.20;;;;;;4803570;29;20046;-84
2021/12/27 09:35:00;;;;;;;91.97;30.77;;;2.20;81.20;;;;;;4804620;29;20046;-83
2021/12/27 09:37:25;;;;;;;83.53;26.90;;;2.30;81.30;;;;;;4824811;29;20061;-83
2021/12/27 09:39:53;;;;;;;92.53;29.60;;;2.30;81.30;;;;;;4825089;29;20122;-82
2021/12/27 09:42:23;;;;;;;74.77;28.63;;;2.30;81.40;;;;;;4822271;29;20061;-83
2021/12/27 09:44:50;;;;;;;90.90;27.73;;;2.30;81.40;;;;;;4826106;29;20391;-83
2021/12/27 09:47:16;;;;;;;79.37;28.57;;;2.30;81.40;;;;;;4821466;29;20060;-84
2021/12/27 09:49:43;;;;;;;110.77;30.33;;;2.40;81.50;;;;;;4812519;29;20111;-83
2021/12/27 09:52:09;;;;;;;91.57;28.60;;;2.40;81.50;;;;;;4795566;29;20045;-83
2021/12/27 09:54:35;;;;;;;102.43;29.47;;;2.40;81.50;;;;;;4792428;29;20066;-78
2021/12/27 09:57:00;;;;;;;90.57;28.83;;;2.40;81.60;;;;;;4813443;29;20078;-80
2021/12/27 09:59:27;;;;;;;101.27;29.63;;;2.40;81.50;;;;;;4817488;29;20089;-81
2021/12/27 10:01:53;;;;;;;90.80;29.53;;;2.40;81.60;;;;;;4832940;29;20478;-81
2021/12/27 10:04:20;;;;;;;94.03;30.70;;;2.50;81.70;;;;;;4808776;29;20443;-81
2021/12/27 10:06:47;;;;;;;97.33;30.07;;;2.50;81.70;;;;;;4824378;29;20042;-80
2021/12/27 10:09:13;;;;;;;107.40;31.10;;;2.50;81.70;;;;;;4824743;29;20479;-81
2021/12/27 10:11:42;;;;;;;99.20;31.33;;;2.50;81.80;;;;;;4806940;29;20376;-81
2021/12/27 10:14:10;;;;;;;94.90;30.50;;;2.60;82.30;;;;;;4815309;29;20073;-81
2021/12/27 10:16:45;;;;;;;97.03;30.57;;;2.60;81.90;;;;;;4823479;29;20121;-81
2021/12/27 10:19:15;;;;;;;97.33;30.27;;;2.60;81.80;;;;;;4808142;29;20341;-81
2021/12/27 10:21:41;;;;;;;90.70;29.23;;;2.60;81.80;;;;;;4811848;29;20054;-80
2021/12/27 10:24:10;;;;;;;78.83;27.33;;;2.60;81.80;;;;;;4820678;29;20470;-81
2021/12/27 10:26:37;;;;;;;97.30;29.47;;;2.70;81.90;;;;;;4823669;29;20050;-80
2021/12/27 10:29:37;;;;;;;126.83;33.17;;;2.70;81.90;;;;;;4807330;29;20077;-81
2021/12/27 10:32:04;;;;;;;95.77;28.10;;;2.70;82.00;;;;;;4818035;29;21661;-80
2021/12/27 10:34:39;;;;;;;85.70;28.17;;;2.70;81.90;;;;;;4825216;29;20038;-79
2021/12/27 10:37:07;;;;;;;87.07;28.17;;;2.70;82.00;;;;;;4822816;29;20103;-79
2021/12/27 10:39:56;;;;;;;79.60;28.43;;;2.70;82.00;;;;;;4825928;29;20046;-79
2021/12/27 10:42:27;;;;;;;120.00;31.90;;;2.80;82.20;;;;;;4824264;29;20046;-79
2021/12/27 10:44:57;;;;;;;86.27;29.33;;;2.80;82.10;;;;;;4825414;29;20111;-79
2021/12/27 10:47:29;;;;;;;87.10;29.80;;;2.80;82.10;;;;;;4806499;29;20058;-79
2021/12/27 10:50:03;;;;;;;84.70;27.10;;;2.80;82.10;;;;;;4808936;29;20456;-79
2021/12/27 10:52:46;;;;;;;93.13;28.92;;;2.80;82.20;;;;;;4822529;29;20051;-78
2021/12/27 10:55:13;;;;;;;97.57;27.80;;;2.80;82.30;;;;;;4825279;29;20054;-78
2021/12/27 10:57:39;;;;;;;97.83;30.10;;;2.90;82.20;;;;;;4806658;29;20397;-84
2021/12/27 11:00:30;;;;;;;136.07;34.43;;;2.90;82.20;;;;;;4825514;29;20053;-83
2021/12/27 11:02:58;;;;;;;140.83;33.83;;;2.90;82.20;;;;;;4801971;29;20114;-84
2021/12/27 11:05:27;;;;;;;124.47;31.70;;;2.90;82.10;;;;;;4792415;29;20069;-84
2021/12/27 11:07:59;;;;;;;261.73;41.67;;;3.00;82.20;;;;;;4807617;29;20046;-84
2021/12/27 11:10:26;;;;;;;127.23;33.23;;;3.00;82.20;;;;;;4824881;29;20127;-83
2021/12/27 11:12:51;;;;;;;134.60;33.73;;;3.00;82.20;;;;;;4804157;29;20064;-83
2021/12/27 11:15:17;;;;;;;174.77;38.90;;;3.00;82.20;;;;;;4818088;29;20047;-84
2021/12/27 11:17:44;;;;;;;120.80;33.53;;;3.10;82.40;;;;;;4817110;29;20387;-83
2021/12/27 11:20:12;;;;;;;112.70;31.67;;;3.10;82.40;;;;;;4807907;29;20061;-84
2021/12/27 11:22:44;;;;;;;124.27;34.47;;;3.10;82.40;;;;;;4824272;29;20046;-83
2021/12/27 11:25:27;;;;;;;122.03;30.77;;;3.10;82.40;;;;;;4823197;29;20077;-84
2021/12/27 11:27:53;;;;;;;120.10;33.10;;;3.20;82.50;;;;;;4822614;29;20089;-84
2021/12/27 11:30:23;;;;;;;116.07;33.63;;;3.20;82.40;;;;;;4823686;29;20126;-83
2021/12/27 11:33:15;;;;;;;141.00;37.13;;;3.20;82.50;;;;;;4802660;29;20058;-83
2021/12/27 11:36:02;;;;;;;120.17;32.87;;;3.20;82.60;;;;;;4844721;29;20038;-82
2021/12/27 11:38:34;;;;;;;125.30;32.97;;;3.30;82.70;;;;;;4823428;29;20082;-83
2021/12/27 11:41:03;;;;;;;115.30;32.90;;;3.30;82.70;;;;;;4825878;29;20089;-84
2021/12/27 11:43:53;;;;;;;115.63;33.73;;;3.30;82.60;;;;;;4823129;29;20081;-83
2021/12/27 11:46:21;;;;;;;150.53;36.20;;;3.30;82.70;;;;;;4824952;29;20090;-88
2021/12/27 11:48:50;;;;;;;141.18;35.35;;;3.40;83.10;;;;;;4810035;29;20087;-88
2021/12/27 11:51:27;;;;;;;123.25;35.88;;;3.40;82.70;;;;;;4809473;29;20051;-89
2021/12/27 11:53:55;;;;;;;146.83;36.77;;;3.40;82.70;;;;;;4809793;29;20494;-91
2021/12/27 11:56:41;;;;;;;146.97;36.57;;;3.40;82.70;;;;;;4810103;29;20437;-89
2021/12/27 11:59:22;;;;;;;151.13;36.00;;;3.50;82.90;;;;;;4826474;29;20054;-91
2021/12/27 12:01:59;;;;;;;138.50;36.63;;;3.50;82.90;;;;;;4812921;29;20188;-90
2021/12/27 16:33:06;;;;;;;56.70;29.43;;;3.40;78.70;;;;;;5138032;27;20442;-75
2021/12/27 16:35:33;;;;;;;65.50;31.07;;;3.40;79.00;;;;;;5126883;28;20051;-73
2021/12/27 16:37:58;;;;;;;59.30;30.13;;;3.40;80.10;;;;;;5107239;28;20070;-73
2021/12/27 16:40:24;;;;;;;53.27;26.20;;;3.40;80.30;;;;;;5108276;28;20048;-73
2021/12/27 16:42:50;;;;;;;53.57;25.93;;;3.50;81.00;;;;;;5126970;28;20039;-74
2021/12/27 16:45:17;;;;;;;50.60;24.27;;;3.50;81.60;;;;;;5126772;28;20052;-74
2021/12/27 16:47:44;;;;;;;45.20;22.77;;;3.50;82.20;;;;;;5129546;27;20049;-73
2021/12/27 16:50:13;;;;;;;47.93;22.90;;;3.50;82.60;;;;;;5107975;28;20059;-73
2021/12/27 16:52:39;;;;;;;43.73;22.40;;;3.60;83.10;;;;;;5107265;28;20059;-74
2021/12/27 16:55:09;;;;;;;45.90;22.80;;;3.60;83.50;;;;;;5127549;28;20096;-73
2021/12/27 16:57:34;;;;;;;40.83;21.23;;;3.60;83.80;;;;;;5108272;28;20055;-74
2021/12/27 17:00:00;;;;;;;40.90;21.13;;;3.70;84.00;;;;;;5111487;28;20058;-74
2021/12/27 17:02:26;;;;;;;43.07;20.80;;;3.70;84.40;;;;;;5111463;28;20479;-74
2021/12/27 17:04:52;;;;;;;36.77;20.87;;;3.70;84.50;;;;;;5129640;28;20040;-73
2021/12/27 17:07:17;;;;;;;37.73;21.33;;;3.80;84.70;;;;;;5130302;28;20746;-74
2021/12/27 17:09:43;;;;;;;38.23;20.10;;;3.80;84.80;;;;;;5129645;28;20039;-75
2021/12/27 17:12:11;;;;;;;139.73;90.25;;;3.80;84.90;;;;;;5095335;28;20126;-73